Time;durP1;ratioP1;P1;durP2;ratioP2;P2;SDS_P1;SDS_P2;PMS_P1;PMS_P2;Temp;Humidity;BMP_temperature;BMP_pressure;BME280_temperature;BME280_humidity;BME280_pressure;Samples;Min_cycle;Max_cycle;Signal;HPM_P1;HPM_P2
2023/08/15 00:00:36;;;;;;;11.35;8.43;;;;;;;-141.97;36.75;47388.38;5013675;28;20169;-81
2023/08/15 00:03:07;;;;;;;9.75;7.20;;;;;;;-141.97;36.96;47128.94;5012570;28;20197;-81
2023/08/15 00:05:33;;;;;;;8.27;7.38;;;;;;;-141.97;37.00;47365.31;5012755;28;20251;-81
2023/08/15 00:07:58;;;;;;;10.90;7.28;;;;;;;-141.97;37.32;47353.78;5012523;28;20307;-81
2023/08/15 00:10:23;;;;;;;8.32;7.07;;;;;;;-141.97;37.25;47319.19;4994319;28;20220;-81
2023/08/15 00:12:49;;;;;;;9.57;7.40;;;;;;;-141.97;37.90;47361.47;5012652;28;20166;-81
2023/08/15 00:15:14;;;;;;;8.70;7.18;;;;;;;-141.97;36.75;47365.31;5011350;28;20627;-80
2023/08/15 00:17:40;;;;;;;8.48;7.05;;;;;;;-141.97;37.12;47369.16;5006524;28;20200;-81
2023/08/15 00:20:06;;;;;;;8.38;7.18;;;;;;;-141.97;36.89;47342.25;5012065;28;20700;-80
2023/08/15 00:22:32;;;;;;;11.18;7.20;;;;;;;-141.97;37.22;47361.47;5012480;28;20535;-81
2023/08/15 00:24:57;;;;;;;8.27;7.38;;;;;;;-141.97;37.92;47376.84;5012497;28;20176;-81
2023/08/15 00:27:22;;;;;;;8.80;7.10;;;;;;;-141.97;37.65;47340.34;5011951;28;20685;-81
2023/08/15 00:29:48;;;;;;;10.68;7.15;;;;;;;-141.97;37.89;47401.84;5011882;28;20231;-81
2023/08/15 00:32:13;;;;;;;10.07;7.53;;;;;;;-141.97;38.24;47376.84;5012321;28;20169;-81
2023/08/15 00:34:38;;;;;;;9.93;7.10;;;;;;;-141.97;37.67;47376.84;5002517;28;20317;-81
2023/08/15 00:37:04;;;;;;;9.30;7.35;;;;;;;-141.97;37.95;47380.69;5012215;28;20206;-81
2023/08/15 00:39:29;;;;;;;9.88;7.53;;;;;;;-141.97;37.92;47340.34;5012004;28;20610;-81
2023/08/15 00:41:55;;;;;;;9.07;7.53;;;;;;;-141.97;37.60;47380.69;5011716;28;20937;-81
2023/08/15 00:44:20;;;;;;;10.60;7.43;;;;;;;-141.97;38.09;47365.31;5012182;28;20192;-81
2023/08/15 00:46:46;;;;;;;9.93;7.25;;;;;;;-141.97;38.20;47369.16;4999371;28;20170;-80
2023/08/15 00:49:11;;;;;;;8.73;7.70;;;;;;;-141.97;38.11;47330.72;5035072;28;20180;-78
2023/08/15 00:51:37;;;;;;;9.88;7.38;;;;;;;-141.97;37.92;47382.63;5022162;28;20185;-80
2023/08/15 00:54:03;;;;;;;12.32;8.10;;;;;;;-141.97;37.67;47371.09;5009063;28;20244;-80
2023/08/15 00:56:29;;;;;;;9.10;7.72;;;;;;;-141.97;37.80;47348.03;5008504;28;20199;-82
2023/08/15 00:58:54;;;;;;;9.85;7.18;;;;;;;-141.97;37.95;47369.16;4994175;28;20621;-81
2023/08/15 01:01:21;;;;;;;8.73;7.70;;;;;;;-141.97;37.82;47403.75;5011596;28;20196;-82
2023/08/15 01:03:47;;;;;;;12.13;7.82;;;;;;;-141.97;38.00;47411.44;5011904;28;20160;-81
2023/08/15 01:06:15;;;;;;;9.30;7.47;;;;;;;-141.97;38.05;47365.31;5011993;28;20527;-85
2023/08/15 01:08:40;;;;;;;8.77;7.43;;;;;;;-141.97;38.26;47353.78;5012435;28;20180;-86
2023/08/15 01:11:06;;;;;;;9.93;7.57;;;;;;;-141.97;38.02;47257.69;5012113;28;20167;-86
2023/08/15 01:13:49;;;;;;;8.70;7.40;;;;;;;-141.97;37.99;47361.47;5012125;28;20207;-84
2023/08/15 01:16:21;;;;;;;10.32;7.40;;;;;;;-141.97;37.80;47357.63;5011288;28;20182;-82
2023/08/15 01:19:06;;;;;;;10.85;7.28;;;;;;;-141.97;37.88;47392.22;5011629;28;20195;-82
2023/08/15 01:21:38;;;;;;;10.32;7.10;;;;;;;-141.97;37.86;47540.22;5011646;28;20597;-81
2023/08/15 01:24:05;;;;;;;10.48;6.65;;;;;;;-141.97;38.11;47388.38;4993905;28;20577;-82
2023/08/15 01:26:30;;;;;;;9.65;6.93;;;;;;;-141.97;37.80;47373.00;5011069;28;20220;-82
2023/08/15 01:28:55;;;;;;;10.68;6.97;;;;;;;-141.97;37.92;47384.53;5012262;28;20165;-81
2023/08/15 01:31:33;;;;;;;9.02;6.88;;;;;;;-141.97;37.83;47382.63;5010717;28;20670;-82
2023/08/15 01:34:17;;;;;;;9.65;6.90;;;;;;;-141.97;37.81;47386.47;5012478;28;20238;-82
2023/08/15 01:36:52;;;;;;;9.35;6.88;;;;;;;-141.97;38.23;47376.84;5011923;28;20192;-82
2023/08/15 01:39:23;;;;;;;10.70;7.55;;;;;;;-141.97;38.72;47384.53;5011861;28;20255;-82
2023/08/15 01:41:49;;;;;;;12.50;7.38;;;;;;;-141.97;38.32;47365.31;5011399;28;20199;-82
2023/08/15 01:44:16;;;;;;;9.82;6.97;;;;;;;-141.97;37.95;47355.72;5012336;28;20222;-82
2023/08/15 01:46:46;;;;;;;10.23;6.93;;;;;;;-141.97;38.42;47384.53;5011830;28;20203;-82
2023/08/15 01:49:12;;;;;;;9.20;6.93;;;;;;;-141.97;38.36;47367.25;5011555;28;20171;-83
2023/08/15 01:51:37;;;;;;;8.93;6.95;;;;;;;-141.97;38.42;47380.69;5011376;28;20175;-82
2023/08/15 01:54:03;;;;;;;10.52;6.78;;;;;;;-141.97;38.72;47369.16;4993011;28;20723;-82
2023/08/15 01:56:28;;;;;;;8.80;6.75;;;;;;;-141.97;38.95;47299.97;5011100;28;20175;-82
2023/08/15 01:58:54;;;;;;;10.30;6.70;;;;;;;-141.97;39.04;47373.00;5011788;28;20498;-82
2023/08/15 02:01:19;;;;;;;8.50;6.75;;;;;;;-141.97;39.36;47374.94;5010287;28;20195;-82
2023/08/15 02:03:44;;;;;;;10.55;6.93;;;;;;;-141.97;39.45;47359.56;5011872;28;20265;-83
2023/08/15 02:06:10;;;;;;;8.88;7.00;;;;;;;-141.97;39.68;47363.41;5016799;28;20163;-82
2023/08/15 02:08:35;;;;;;;8.25;6.95;;;;;;;-141.97;40.39;47365.31;5017715;28;20258;-83
2023/08/15 02:11:00;;;;;;;9.83;7.30;;;;;;;-141.97;40.80;47363.41;5011698;28;20255;-83
2023/08/15 02:13:32;;;;;;;8.93;7.03;;;;;;;-141.97;41.42;47338.41;4993730;28;20252;-83
2023/08/15 02:15:57;;;;;;;10.20;7.77;;;;;;;-141.97;41.33;47357.63;5012257;28;20190;-82
2023/08/15 02:18:27;;;;;;;10.17;7.57;;;;;;;-141.97;41.70;47340.34;5012129;28;20194;-83
2023/08/15 02:20:53;;;;;;;10.13;7.70;;;;;;;-141.97;41.54;47363.41;5013360;28;20154;-81
2023/08/15 02:23:18;;;;;;;8.80;7.27;;;;;;;-141.97;41.67;47419.13;5012427;28;20476;-81
2023/08/15 02:25:44;;;;;;;11.27;7.60;;;;;;;-141.97;41.99;47373.00;5011756;28;20229;-81
2023/08/15 02:28:09;;;;;;;12.20;7.97;;;;;;;-141.97;41.91;47363.41;5010789;28;20249;-82
2023/08/15 02:30:37;;;;;;;9.97;7.47;;;;;;;-141.97;41.70;47419.13;5010672;28;20238;-81
2023/08/15 02:33:06;;;;;;;9.43;8.00;;;;;;;-141.97;41.65;47413.38;5010111;28;20206;-82
2023/08/15 02:35:32;;;;;;;9.57;7.37;;;;;;;-141.97;41.58;47338.41;5000521;28;20258;-82
2023/08/15 02:37:58;;;;;;;8.77;7.47;;;;;;;-141.97;41.62;47457.56;4993135;28;20197;-82
2023/08/15 02:40:29;;;;;;;9.27;7.50;;;;;;;-141.97;41.72;47369.16;5009151;28;20183;-81
2023/08/15 02:42:54;;;;;;;8.77;7.57;;;;;;;-141.97;41.60;47353.78;5010378;28;20242;-81
2023/08/15 02:45:20;;;;;;;10.80;7.60;;;;;;;-141.97;41.62;47380.69;4993357;28;20194;-81
2023/08/15 02:47:46;;;;;;;9.87;8.00;;;;;;;-141.97;41.69;47369.16;5010652;28;20175;-81
2023/08/15 02:50:12;;;;;;;14.27;8.10;;;;;;;-141.97;41.48;47373.00;5010662;28;20178;-81
2023/08/15 02:52:37;;;;;;;12.47;8.10;;;;;;;-141.97;41.18;47269.22;5010232;28;20159;-82
2023/08/15 02:55:03;;;;;;;12.23;8.23;;;;;;;-141.97;41.12;47396.06;5010561;28;20167;-82
2023/08/15 02:57:29;;;;;;;10.57;8.07;;;;;;;-141.97;41.36;47357.63;5010414;28;20163;-83
2023/08/15 02:59:54;;;;;;;10.03;7.50;;;;;;;-141.97;41.52;47411.44;5010528;28;20158;-81
2023/08/15 03:02:20;;;;;;;10.18;8.18;;;;;;;-141.97;41.65;47348.03;5010672;28;20288;-81
2023/08/15 03:04:45;;;;;;;12.80;8.27;;;;;;;-141.97;41.47;47346.09;5010253;28;20178;-81
2023/08/15 03:07:11;;;;;;;10.48;8.13;;;;;;;-141.97;41.65;47349.94;5011608;28;20167;-83
2023/08/15 03:09:36;;;;;;;11.53;8.03;;;;;;;-141.97;41.60;47399.91;5014144;28;20166;-83
2023/08/15 03:12:02;;;;;;;11.63;8.60;;;;;;;-141.97;41.66;47399.91;5025278;28;20170;-83
2023/08/15 03:14:28;;;;;;;15.30;8.67;;;;;;;-141.97;41.86;47355.72;5029374;28;20220;-82
2023/08/15 03:16:54;;;;;;;18.83;9.20;;;;;;;-141.97;42.03;47411.44;5018157;28;20275;-82
2023/08/15 03:19:19;;;;;;;10.60;8.63;;;;;;;-141.97;42.09;47376.84;5014841;28;20162;-82
2023/08/15 03:21:45;;;;;;;10.80;8.60;;;;;;;-141.97;41.94;47407.59;5014509;28;20198;-81
2023/08/15 03:24:11;;;;;;;14.93;9.10;;;;;;;-141.97;42.13;47384.53;5013803;28;20171;-82
2023/08/15 03:26:36;;;;;;;13.47;9.03;;;;;;;-141.97;42.35;47365.31;5013850;28;20364;-80
2023/08/15 03:29:01;;;;;;;12.70;8.77;;;;;;;-141.97;42.77;47357.63;5013666;28;20166;-81
2023/08/15 03:31:27;;;;;;;12.50;8.70;;;;;;;-141.97;42.95;47413.38;5013690;28;20242;-81
2023/08/15 03:33:52;;;;;;;12.47;8.60;;;;;;;-141.97;43.70;47373.00;5013636;28;20198;-80
2023/08/15 03:36:18;;;;;;;13.27;8.90;;;;;;;-141.97;43.84;47361.47;5004152;28;20234;-81
2023/08/15 03:38:43;;;;;;;10.93;9.07;;;;;;;-141.97;44.14;47413.38;5013884;28;20229;-80
2023/08/15 03:41:08;;;;;;;14.67;9.27;;;;;;;-141.97;43.96;47396.06;5013860;28;20279;-80
2023/08/15 03:43:35;;;;;;;12.97;9.27;;;;;;;-141.97;43.98;47419.13;5013725;28;20185;-82
2023/08/15 03:46:02;;;;;;;12.80;8.70;;;;;;;-141.97;43.73;47396.06;5013943;28;20642;-80
2023/08/15 03:48:31;;;;;;;12.73;9.10;;;;;;;-141.97;44.02;47365.31;5014103;28;20167;-82
2023/08/15 03:50:58;;;;;;;14.50;8.93;;;;;;;-141.97;43.75;47424.91;5014011;28;20297;-81
2023/08/15 03:53:24;;;;;;;13.13;8.93;;;;;;;-141.97;43.58;47401.84;5013371;28;20175;-82
2023/08/15 03:55:51;;;;;;;17.67;8.83;;;;;;;-141.97;43.74;47371.09;5020002;28;20771;-82
2023/08/15 03:58:18;;;;;;;17.83;9.67;;;;;;;-141.97;43.83;47409.53;5033025;28;20581;-81
2023/08/15 04:00:45;;;;;;;15.10;9.30;;;;;;;-141.97;43.68;47390.31;5032968;28;20231;-82
2023/08/15 04:03:10;;;;;;;15.83;8.90;;;;;;;-141.97;43.73;47411.44;5028762;28;20717;-81
2023/08/15 04:05:35;;;;;;;12.97;9.47;;;;;;;-141.97;43.75;47357.63;5012966;28;20163;-81
2023/08/15 04:08:02;;;;;;;13.93;9.23;;;;;;;-141.97;43.74;47367.25;5013095;28;20171;-81
2023/08/15 04:10:28;;;;;;;13.57;9.23;;;;;;;-141.97;43.98;47421.06;5013170;28;20190;-80
2023/08/15 04:12:53;;;;;;;15.13;8.53;;;;;;;-141.97;44.09;47376.84;5012893;28;20198;-80
2023/08/15 04:15:19;;;;;;;13.27;9.00;;;;;;;-141.97;44.10;47334.56;5013144;28;20170;-82
2023/08/15 04:17:44;;;;;;;12.80;8.77;;;;;;;-141.97;44.43;47407.59;5013218;28;20548;-81
2023/08/15 04:20:12;;;;;;;11.17;8.70;;;;;;;-141.97;44.49;47378.78;5013336;28;20193;-81
2023/08/15 04:22:38;;;;;;;14.00;9.00;;;;;;;-141.97;44.33;47409.53;5012942;28;20544;-82
2023/08/15 04:25:06;;;;;;;11.43;9.17;;;;;;;-141.97;44.61;47365.31;4994002;28;20186;-81
2023/08/15 04:27:32;;;;;;;13.97;9.83;;;;;;;-141.97;44.67;47303.81;5012617;28;20711;-81
2023/08/15 04:29:57;;;;;;;17.00;9.57;;;;;;;-141.97;44.33;47388.38;5013798;28;20197;-81
2023/08/15 04:32:23;;;;;;;14.77;9.73;;;;;;;-141.97;44.22;47359.56;5012803;28;20261;-81
2023/08/15 04:34:48;;;;;;;13.87;9.73;;;;;;;-141.97;44.51;47376.84;5003103;28;20709;-80
2023/08/15 04:37:14;;;;;;;13.83;9.80;;;;;;;-141.97;44.66;47392.22;5012016;28;20167;-80
2023/08/15 04:39:39;;;;;;;12.70;9.80;;;;;;;-141.97;44.91;47373.00;5012466;28;20257;-83
2023/08/15 04:42:04;;;;;;;19.50;9.97;;;;;;;-141.97;44.68;47426.81;5013085;28;20186;-82
2023/08/15 04:44:30;;;;;;;15.43;10.40;;;;;;;-141.97;44.63;47376.84;5012900;28;20670;-82
2023/08/15 04:46:55;;;;;;;23.70;10.17;;;;;;;-141.97;44.44;47398.00;5013508;28;20216;-81
2023/08/15 04:49:21;;;;;;;28.13;10.20;;;;;;;-141.97;44.46;47401.84;5012120;28;20175;-82
2023/08/15 04:51:46;;;;;;;27.10;10.97;;;;;;;-141.97;44.81;47401.84;5012575;28;20178;-81
2023/08/15 04:54:11;;;;;;;21.00;11.07;;;;;;;-141.97;45.29;47419.13;4997604;28;20206;-82
2023/08/15 04:56:37;;;;;;;26.80;11.83;;;;;;;-141.97;45.84;47436.44;5012314;28;20182;-81
2023/08/15 04:59:02;;;;;;;18.63;10.10;;;;;;;-141.97;45.89;47371.09;5011739;28;20175;-81
2023/08/15 05:01:28;;;;;;;18.77;10.23;;;;;;;-141.97;45.98;47407.59;5012210;28;20179;-81
2023/08/15 05:03:53;;;;;;;17.83;9.90;;;;;;;-141.97;45.56;47415.28;5012240;28;20581;-82
2023/08/15 05:06:19;;;;;;;17.17;9.40;;;;;;;-141.97;45.35;47326.88;5012332;28;20155;-81
2023/08/15 05:08:44;;;;;;;16.60;9.30;;;;;;;-141.97;45.28;47388.38;5011619;28;20174;-81
2023/08/15 05:11:10;;;;;;;13.93;9.17;;;;;;;-141.97;44.71;47403.75;5012154;28;20163;-82
2023/08/15 05:13:35;;;;;;;13.37;9.50;;;;;;;-141.97;44.43;47374.94;5011924;28;20183;-81
2023/08/15 05:16:01;;;;;;;13.23;9.30;;;;;;;-141.97;44.59;47338.41;5012153;28;20162;-81
2023/08/15 05:18:26;;;;;;;13.97;9.27;;;;;;;-141.97;44.41;47413.38;5011783;28;20166;-81
2023/08/15 05:20:52;;;;;;;13.13;8.80;;;;;;;-141.97;44.80;47382.63;5012010;28;20158;-81
2023/08/15 05:23:17;;;;;;;14.67;9.10;;;;;;;-141.97;44.77;47432.59;5012221;28;20257;-82
2023/08/15 05:25:43;;;;;;;17.13;9.13;;;;;;;-141.97;44.48;47384.53;5018795;28;20299;-81
2023/08/15 05:28:11;;;;;;;20.97;10.80;;;;;;;-141.97;43.89;47376.84;5019852;28;20174;-82
2023/08/15 05:30:37;;;;;;;20.47;10.60;;;;;;;-141.97;44.19;47396.06;5020074;28;20635;-86
2023/08/15 05:33:03;;;;;;;15.43;8.73;;;;;;;-141.97;44.58;47378.78;5017540;28;20190;-84
2023/08/15 05:35:28;;;;;;;13.87;9.40;;;;;;;-141.97;44.80;47376.84;5003717;28;20226;-82
2023/08/15 05:37:54;;;;;;;16.17;8.73;;;;;;;-141.97;45.27;47388.38;5022963;28;20174;-82
2023/08/15 05:40:20;;;;;;;14.67;9.17;;;;;;;-141.97;45.72;47403.75;5031638;28;20183;-82
2023/08/15 05:42:46;;;;;;;15.37;9.33;;;;;;;-141.97;46.01;47382.63;5011489;28;20641;-83
2023/08/15 05:45:11;;;;;;;10.77;8.80;;;;;;;-141.97;45.67;47388.38;5012443;28;20686;-84
2023/08/15 05:47:37;;;;;;;12.10;9.00;;;;;;;-141.97;45.38;47330.72;5011862;28;20547;-83
2023/08/15 05:50:03;;;;;;;10.87;8.47;;;;;;;-141.97;45.58;47415.28;5011188;28;20174;-83
2023/08/15 05:52:28;;;;;;;13.80;8.77;;;;;;;-141.97;45.78;47415.28;5013582;28;20201;-85
2023/08/15 05:54:55;;;;;;;16.90;8.97;;;;;;;-141.97;45.75;47411.44;5014941;28;20178;-85
2023/08/15 05:57:20;;;;;;;13.60;8.83;;;;;;;-141.97;45.66;47380.69;5011696;28;20175;-84
2023/08/15 05:59:46;;;;;;;14.90;9.40;;;;;;;-141.97;46.10;47409.53;5011159;28;20630;-82
2023/08/15 06:02:12;;;;;;;13.70;8.77;;;;;;;-141.97;45.89;47647.84;5011230;28;20285;-82
2023/08/15 06:04:38;;;;;;;14.60;8.93;;;;;;;-141.97;46.07;47394.16;5012469;28;20245;-82
2023/08/15 06:07:03;;;;;;;17.83;9.33;;;;;;;-141.97;45.81;47376.84;5013889;28;20698;-82
2023/08/15 06:09:29;;;;;;;16.60;9.37;;;;;;;-141.97;45.84;47405.69;4996641;28;20273;-82
2023/08/15 06:11:54;;;;;;;15.80;9.40;;;;;;;-141.97;45.83;47273.06;5011763;28;20607;-82
2023/08/15 06:14:21;;;;;;;21.20;9.57;;;;;;;-141.97;46.46;47421.06;5011609;28;20163;-82
2023/08/15 06:16:47;;;;;;;16.40;9.20;;;;;;;-141.97;45.90;47403.75;5010832;28;20162;-83
2023/08/15 06:19:12;;;;;;;17.53;8.87;;;;;;;-141.97;45.75;47367.25;5010802;28;20198;-82
2023/08/15 06:21:41;;;;;;;15.23;9.10;;;;;;;-141.97;45.40;47480.63;5009982;28;20676;-83
2023/08/15 06:24:10;;;;;;;18.83;8.70;;;;;;;-141.97;45.50;47421.06;5011166;28;20185;-82
2023/08/15 06:26:36;;;;;;;14.67;8.87;;;;;;;-141.97;45.39;47415.28;5010718;28;20218;-83
2023/08/15 06:29:02;;;;;;;16.70;9.07;;;;;;;-141.97;45.65;47603.66;5014531;28;20185;-82
2023/08/15 06:31:28;;;;;;;26.13;10.67;;;;;;;-141.97;45.35;47421.06;5010412;28;20177;-82
2023/08/15 06:33:53;;;;;;;30.07;12.80;;;;;;;-141.97;44.97;47426.81;5010072;28;20178;-82
2023/08/15 06:36:19;;;;;;;26.30;14.60;;;;;;;-141.97;45.12;47595.97;5001859;28;20237;-82
2023/08/15 06:38:44;;;;;;;26.07;14.63;;;;;;;-141.97;44.67;47396.06;5010770;28;20599;-82
2023/08/15 06:41:11;;;;;;;21.60;13.10;;;;;;;-141.97;44.08;47365.31;5010211;28;20174;-82
2023/08/15 06:43:37;;;;;;;29.10;12.43;;;;;;;-141.97;44.46;47380.69;5011095;28;20246;-82
2023/08/15 06:46:03;;;;;;;19.23;10.17;;;;;;;-141.97;44.23;47419.13;5010932;28;20200;-82
2023/08/15 06:48:29;;;;;;;15.53;9.57;;;;;;;-141.97;44.29;47417.22;5014036;28;20186;-81
2023/08/15 06:50:54;;;;;;;14.53;9.47;;;;;;;-141.97;44.25;47419.13;5010962;28;20185;-81
2023/08/15 06:53:20;;;;;;;20.33;9.03;;;;;;;-141.97;44.08;47411.44;5014890;28;20183;-83
2023/08/15 06:55:48;;;;;;;18.57;9.23;;;;;;;-141.97;44.19;47407.59;5015062;28;20199;-84
2023/08/15 06:58:13;;;;;;;21.00;9.10;;;;;;;-141.97;44.43;47371.09;5015133;28;20229;-81
2023/08/15 07:00:39;;;;;;;25.57;8.83;;;;;;;-141.97;44.19;47392.22;5019173;28;20178;-81
2023/08/15 07:03:04;;;;;;;28.30;9.40;;;;;;;-141.97;43.75;47376.84;5009046;28;20206;-81
2023/08/15 07:05:30;;;;;;;17.47;9.00;;;;;;;-141.97;43.96;47405.69;5025587;28;20191;-82
2023/08/15 07:07:55;;;;;;;16.23;9.03;;;;;;;-141.97;44.35;47371.09;5018389;28;20185;-83
2023/08/15 07:10:20;;;;;;;25.77;9.60;;;;;;;-141.97;44.60;47403.75;5015438;28;20351;-83
2023/08/15 07:12:49;;;;;;;16.50;9.30;;;;;;;-141.97;44.62;47415.28;5014312;28;20182;-83
2023/08/15 07:15:14;;;;;;;16.40;9.23;;;;;;;-141.97;44.94;47409.53;5014665;28;20171;-82
2023/08/15 07:17:40;;;;;;;20.67;10.37;;;;;;;-141.97;45.20;47380.69;5014585;28;20258;-81
2023/08/15 07:20:06;;;;;;;22.27;10.63;;;;;;;-141.97;45.28;47390.31;5013908;28;20181;-82
2023/08/15 07:22:31;;;;;;;19.77;9.50;;;;;;;-141.97;45.43;47392.22;5013883;28;20651;-82
2023/08/15 07:24:56;;;;;;;17.97;9.43;;;;;;;-141.97;45.49;47419.13;5013487;28;20246;-82
2023/08/15 07:27:22;;;;;;;15.87;9.53;;;;;;;-141.97;45.89;47546.00;5013136;28;21278;-83
2023/08/15 07:29:47;;;;;;;17.63;9.10;;;;;;;-141.97;46.24;47388.38;5013395;28;20210;-83
2023/08/15 07:32:13;;;;;;;13.60;8.40;;;;;;;-141.97;46.59;47361.47;5013760;28;20171;-85
2023/08/15 07:34:38;;;;;;;12.53;9.00;;;;;;;-141.97;46.10;47407.59;5013765;28;20170;-82
2023/08/15 07:37:04;;;;;;;14.37;9.07;;;;;;;-141.97;45.70;47424.91;5003821;28;20261;-83
2023/08/15 07:39:29;;;;;;;15.30;9.57;;;;;;;-141.97;45.64;47384.53;5012455;28;20261;-83
2023/08/15 07:41:54;;;;;;;12.60;8.20;;;;;;;-141.97;45.32;47438.34;5013317;28;20281;-84
2023/08/15 07:44:20;;;;;;;15.33;8.93;;;;;;;-141.97;45.33;47407.59;5014021;28;20515;-84
2023/08/15 07:46:45;;;;;;;15.63;9.00;;;;;;;-141.97;45.60;47413.38;5013666;28;20173;-83
2023/08/15 07:49:11;;;;;;;23.17;10.67;;;;;;;-141.97;45.97;47430.66;5013595;28;20179;-83
2023/08/15 07:51:36;;;;;;;19.57;10.27;;;;;;;-141.97;46.21;47338.41;5013319;28;20198;-83
2023/08/15 07:54:02;;;;;;;21.23;9.73;;;;;;;-141.97;45.84;47392.22;5012664;28;20630;-83
2023/08/15 07:56:29;;;;;;;22.43;9.67;;;;;;;-141.97;45.77;47409.53;5014702;28;20163;-83
2023/08/15 07:58:54;;;;;;;21.27;8.90;;;;;;;-141.97;46.18;47415.28;5013644;28;20241;-85
2023/08/15 08:01:19;;;;;;;16.63;8.63;;;;;;;-141.97;46.62;47565.22;5015292;28;20225;-83
2023/08/15 08:03:45;;;;;;;13.30;8.27;;;;;;;-141.97;46.85;47411.44;5032707;28;20167;-83
2023/08/15 08:06:10;;;;;;;15.10;8.70;;;;;;;-141.97;47.31;47413.38;5027917;28;20544;-83
2023/08/15 08:08:36;;;;;;;15.00;8.40;;;;;;;-141.97;46.96;47461.41;5013823;28;20233;-83
2023/08/15 08:11:01;;;;;;;15.97;9.37;;;;;;;-141.97;46.78;47405.69;5013286;28;20194;-83
2023/08/15 08:13:27;;;;;;;13.57;9.57;;;;;;;-141.97;46.59;47380.69;5012963;28;20189;-84
2023/08/15 08:15:52;;;;;;;17.77;9.60;;;;;;;-141.97;46.54;47419.13;5013426;28;20674;-84
2023/08/15 08:18:17;;;;;;;13.30;8.70;;;;;;;-141.97;46.93;47409.53;5013293;28;20175;-83
2023/08/15 08:20:43;;;;;;;14.17;9.23;;;;;;;-141.97;47.21;47419.13;5013253;28;20151;-83
2023/08/15 08:23:08;;;;;;;12.13;8.20;;;;;;;-141.97;47.49;47396.06;5012774;28;20198;-82
2023/08/15 08:25:34;;;;;;;11.13;8.23;;;;;;;-141.97;47.75;47299.97;4995032;28;20182;-83
2023/08/15 08:27:59;;;;;;;22.00;9.43;;;;;;;-141.97;47.92;47407.59;5012831;28;20258;-84
2023/08/15 08:30:25;;;;;;;25.60;10.03;;;;;;;-141.97;47.86;47378.78;5031999;28;20281;-83
2023/08/15 08:32:51;;;;;;;16.87;9.03;;;;;;;-141.97;47.17;47376.84;5017816;28;20238;-84
2023/08/15 08:35:17;;;;;;;14.13;8.67;;;;;;;-141.97;47.08;47399.91;5012756;28;20163;-84
2023/08/15 08:37:44;;;;;;;16.90;8.97;;;;;;;-141.97;46.91;47417.22;5003270;28;20352;-83
2023/08/15 08:40:12;;;;;;;15.57;8.30;;;;;;;-141.97;46.66;47376.84;4994633;28;20547;-84
2023/08/15 08:42:39;;;;;;;15.53;8.33;;;;;;;-141.97;46.27;47290.38;5012520;28;20222;-83
2023/08/15 08:45:07;;;;;;;17.27;8.10;;;;;;;-141.97;45.80;47328.81;4995684;28;20224;-83
2023/08/15 08:47:33;;;;;;;17.10;8.73;;;;;;;-141.97;45.90;47380.69;4995164;28;20241;-83
2023/08/15 08:50:00;;;;;;;13.13;8.77;;;;;;;-141.97;46.47;47595.97;5012776;28;20163;-83
2023/08/15 08:52:27;;;;;;;12.63;7.20;;;;;;;-141.97;46.85;47436.44;4994713;28;20606;-84
2023/08/15 08:54:53;;;;;;;11.00;8.07;;;;;;;-141.97;46.66;47576.75;5012381;28;20246;-84
2023/08/15 08:57:20;;;;;;;11.23;7.80;;;;;;;-141.97;46.41;47396.06;5012578;28;20276;-83
2023/08/15 08:59:45;;;;;;;12.23;8.07;;;;;;;-141.97;46.08;47378.78;5013310;28;20163;-83
2023/08/15 09:02:19;;;;;;;12.23;8.13;;;;;;;-141.97;45.35;47419.13;5012269;28;20198;-82
2023/08/15 09:04:45;;;;;;;13.30;8.83;;;;;;;-141.97;45.35;47392.22;5012669;28;20170;-84
2023/08/15 09:07:10;;;;;;;13.43;8.17;;;;;;;-141.97;44.90;47407.59;5011901;28;20163;-82
2023/08/15 09:09:38;;;;;;;11.37;8.30;;;;;;;-141.97;44.55;47403.75;5011787;28;20636;-83
2023/08/15 09:12:06;;;;;;;13.33;8.07;;;;;;;-141.97;44.69;47388.38;4993913;28;20232;-82
2023/08/15 09:14:31;;;;;;;12.20;8.57;;;;;;;-141.97;44.49;47338.41;5011834;28;20217;-84
2023/08/15 09:16:57;;;;;;;16.50;8.60;;;;;;;-141.97;44.42;47655.53;5011609;28;20167;-81
2023/08/15 09:19:23;;;;;;;14.77;9.57;;;;;;;-141.97;43.77;47388.38;5011247;28;20191;-82
2023/08/15 09:21:48;;;;;;;13.90;9.30;;;;;;;-141.97;43.79;47388.38;5011071;28;20218;-83
2023/08/15 09:24:13;;;;;;;14.63;8.30;;;;;;;-141.97;43.44;47363.41;5012524;28;20164;-83
2023/08/15 09:26:39;;;;;;;15.20;10.40;;;;;;;-141.97;43.03;47290.38;5014823;28;20290;-84
2023/08/15 09:29:05;;;;;;;14.80;7.82;;;;;;;-141.97;42.05;47447.97;5011830;28;20178;-86
2023/08/15 09:31:30;;;;;;;14.20;8.63;;;;;;;-141.97;41.91;47601.72;5011634;28;20188;-83
2023/08/15 09:33:56;;;;;;;14.07;8.40;;;;;;;-141.97;41.77;47365.31;5020680;28;20237;-82
2023/08/15 09:36:26;;;;;;;16.33;9.23;;;;;;;-141.97;41.73;47376.84;5002434;28;20246;-83
2023/08/15 09:38:56;;;;;;;13.85;8.45;;;;;;;-141.97;41.96;47388.38;5011396;28;20197;-82
2023/08/15 09:41:25;;;;;;;13.35;8.77;;;;;;;-141.97;41.96;47405.69;5011837;28;21034;-83
2023/08/15 09:43:52;;;;;;;15.55;9.25;;;;;;;-141.97;41.52;47384.53;5012207;28;20170;-82
2023/08/15 09:46:21;;;;;;;13.45;8.95;;;;;;;-141.97;41.96;47382.63;5013132;28;20172;-84
2023/08/15 09:48:47;;;;;;;16.48;9.10;;;;;;;-141.97;42.11;47405.69;5024311;28;20291;-83
2023/08/15 09:51:15;;;;;;;15.85;8.95;;;;;;;-141.97;42.38;47348.03;5015853;28;20172;-83
2023/08/15 09:53:46;;;;;;;13.45;9.02;;;;;;;-141.97;43.00;47419.13;5012130;28;20172;-82
2023/08/15 09:56:13;;;;;;;11.07;8.25;;;;;;;-141.97;42.84;47361.47;5016978;28;20260;-84
2023/08/15 09:58:38;;;;;;;12.75;8.82;;;;;;;-141.97;42.95;47386.47;5012299;28;20181;-83
2023/08/15 10:01:13;;;;;;;16.93;8.80;;;;;;;-141.97;43.93;47367.25;5011453;28;20178;-81
2023/08/15 10:03:40;;;;;;;12.13;9.02;;;;;;;-141.97;44.10;47374.94;5011300;28;20225;-82
2023/08/15 10:06:09;;;;;;;14.85;9.07;;;;;;;-141.97;44.98;47373.00;5011667;28;20178;-82
2023/08/15 10:08:39;;;;;;;9.73;8.70;;;;;;;-141.97;45.92;47511.38;5011598;28;20165;-82
2023/08/15 10:11:09;;;;;;;12.70;8.85;;;;;;;-141.97;47.04;47240.41;5014808;28;20191;-85
2023/08/15 10:13:38;;;;;;;12.18;8.65;;;;;;;-141.97;48.27;47388.38;5011681;28;20177;-83
2023/08/15 10:16:06;;;;;;;14.88;9.63;;;;;;;-141.97;48.93;47449.88;5010856;28;20183;-84
2023/08/15 10:18:32;;;;;;;11.40;9.35;;;;;;;-141.97;49.19;47361.47;5011705;28;20169;-84
2023/08/15 10:20:58;;;;;;;14.15;9.18;;;;;;;-141.97;49.65;47386.47;5010937;28;20587;-84
2023/08/15 10:23:33;;;;;;;14.63;9.30;;;;;;;-141.97;49.89;47388.38;5010407;28;20215;-84
2023/08/15 10:25:59;;;;;;;13.20;9.55;;;;;;;-141.97;49.59;47396.06;4997463;28;20231;-83
2023/08/15 10:28:33;;;;;;;13.27;9.30;;;;;;;-141.97;50.24;47388.38;5032285;28;20539;-85
2023/08/15 10:30:59;;;;;;;12.95;9.00;;;;;;;-141.97;49.95;47522.91;5023344;28;20183;-84
2023/08/15 10:33:28;;;;;;;13.57;8.80;;;;;;;-141.97;49.42;47484.47;4994473;28;20184;-85
2023/08/15 10:35:54;;;;;;;13.65;9.40;;;;;;;-141.97;49.90;47369.16;5011986;28;20265;-83
2023/08/15 10:38:40;;;;;;;13.35;9.07;;;;;;;-141.97;50.46;47334.56;5003235;28;20258;-83
2023/08/15 10:41:11;;;;;;;11.52;9.32;;;;;;;-141.97;50.84;47415.28;5015382;28;20179;-82
2023/08/15 10:43:37;;;;;;;14.25;9.30;;;;;;;-141.97;50.43;47355.72;5013251;28;20205;-82
2023/08/15 10:46:05;;;;;;;14.57;9.55;;;;;;;-141.97;50.55;47367.25;5013501;28;20227;-85
2023/08/15 10:48:50;;;;;;;14.55;10.00;;;;;;;-141.97;51.07;47411.44;5011960;28;20161;-83
2023/08/15 10:51:22;;;;;;;12.40;9.48;;;;;;;-141.97;51.58;47342.25;4992884;28;20545;-83
2023/08/15 10:53:52;;;;;;;17.33;11.88;;;;;;;-141.97;51.98;47380.69;5010979;28;20169;-84
2023/08/15 10:56:19;;;;;;;14.13;11.63;;;;;;;-141.97;52.17;47421.06;4993050;28;20182;-82
2023/08/15 10:58:49;;;;;;;13.80;10.20;;;;;;;-141.97;52.05;47390.31;5013611;28;20653;-84
2023/08/15 11:01:26;;;;;;;14.15;10.13;;;;;;;-141.97;52.18;47398.00;5011782;28;20175;-84
2023/08/15 11:03:54;;;;;;;12.95;9.25;;;;;;;-141.97;52.24;47365.31;5012360;28;20176;-83
2023/08/15 11:06:20;;;;;;;14.43;9.60;;;;;;;-141.97;52.37;47405.69;5010634;28;20195;-84